sensor_id;sensor_type;location;lat;lon;timestamp;temperature;humidity
68354;DHT22;55274;43.060;25.618;2022-09-09T00:04:42;20.90;66.00
68354;DHT22;55274;43.060;25.618;2022-09-09T00:07:16;20.80;66.00
68354;DHT22;55274;43.060;25.618;2022-09-09T00:09:52;20.80;67.30
68354;DHT22;55274;43.060;25.618;2022-09-09T00:21:14;20.40;69.50
68354;DHT22;55274;43.060;25.618;2022-09-09T00:23:56;20.40;69.20
68354;DHT22;55274;43.060;25.618;2022-09-09T00:26:38;20.40;69.70
68354;DHT22;55274;43.060;25.618;2022-09-09T00:29:20;20.30;69.50
68354;DHT22;55274;43.060;25.618;2022-09-09T00:31:48;20.30;69.20
68354;DHT22;55274;43.060;25.618;2022-09-09T00:34:23;20.30;68.70
68354;DHT22;55274;43.060;25.618;2022-09-09T00:36:52;20.30;68.60
68354;DHT22;55274;43.060;25.618;2022-09-09T00:39:42;20.30;69.50
68354;DHT22;55274;43.060;25.618;2022-09-09T00:42:17;20.30;68.90
68354;DHT22;55274;43.060;25.618;2022-09-09T00:47:46;20.20;69.10
68354;DHT22;55274;43.060;25.618;2022-09-09T00:50:17;20.20;69.00
68354;DHT22;55274;43.060;25.618;2022-09-09T00:53:05;20.20;67.40
68354;DHT22;55274;43.060;25.618;2022-09-09T00:56:12;20.30;67.00
68354;DHT22;55274;43.060;25.618;2022-09-09T00:58:43;20.40;68.10
68354;DHT22;55274;43.060;25.618;2022-09-09T01:01:16;20.40;68.80
68354;DHT22;55274;43.060;25.618;2022-09-09T01:03:54;20.40;68.30
68354;DHT22;55274;43.060;25.618;2022-09-09T01:06:35;20.40;67.80
68354;DHT22;55274;43.060;25.618;2022-09-09T01:09:32;20.40;67.20
68354;DHT22;55274;43.060;25.618;2022-09-09T01:12:23;20.40;67.80
68354;DHT22;55274;43.060;25.618;2022-09-09T01:15:18;20.30;68.40
68354;DHT22;55274;43.060;25.618;2022-09-09T01:18:02;20.20;69.10
68354;DHT22;55274;43.060;25.618;2022-09-09T01:26:41;20.00;69.10
68354;DHT22;55274;43.060;25.618;2022-09-09T01:29:13;20.10;66.50
68354;DHT22;55274;43.060;25.618;2022-09-09T01:34:31;20.30;66.00
68354;DHT22;55274;43.060;25.618;2022-09-09T01:37:07;20.60;65.10
68354;DHT22;55274;43.060;25.618;2022-09-09T01:39:36;20.80;62.80
68354;DHT22;55274;43.060;25.618;2022-09-09T01:42:05;20.80;63.20
68354;DHT22;55274;43.060;25.618;2022-09-09T01:44:32;20.80;65.30
68354;DHT22;55274;43.060;25.618;2022-09-09T01:46:58;20.80;63.60
68354;DHT22;55274;43.060;25.618;2022-09-09T01:49:24;20.90;62.50
68354;DHT22;55274;43.060;25.618;2022-09-09T01:51:52;20.80;64.80
68354;DHT22;55274;43.060;25.618;2022-09-09T01:54:20;20.70;65.20
68354;DHT22;55274;43.060;25.618;2022-09-09T01:59:44;20.70;64.10
68354;DHT22;55274;43.060;25.618;2022-09-09T02:04:49;20.70;63.10
68354;DHT22;55274;43.060;25.618;2022-09-09T02:07:37;20.70;63.20
68354;DHT22;55274;43.060;25.618;2022-09-09T02:10:12;20.70;65.40
68354;DHT22;55274;43.060;25.618;2022-09-09T02:12:44;20.60;66.10
68354;DHT22;55274;43.060;25.618;2022-09-09T02:15:23;20.40;66.90
68354;DHT22;55274;43.060;25.618;2022-09-09T02:17:52;20.30;67.00
68354;DHT22;55274;43.060;25.618;2022-09-09T02:20:20;20.30;68.10
68354;DHT22;55274;43.060;25.618;2022-09-09T02:22:50;20.30;65.40
68354;DHT22;55274;43.060;25.618;2022-09-09T02:25:19;20.30;65.60
68354;DHT22;55274;43.060;25.618;2022-09-09T02:27:46;20.40;65.70
68354;DHT22;55274;43.060;25.618;2022-09-09T02:30:13;20.40;65.10
68354;DHT22;55274;43.060;25.618;2022-09-09T02:32:41;20.40;64.60
68354;DHT22;55274;43.060;25.618;2022-09-09T02:35:14;20.50;65.70
68354;DHT22;55274;43.060;25.618;2022-09-09T02:37:42;20.40;66.70
68354;DHT22;55274;43.060;25.618;2022-09-09T02:40:10;20.30;67.30
68354;DHT22;55274;43.060;25.618;2022-09-09T02:42:41;20.20;68.20
68354;DHT22;55274;43.060;25.618;2022-09-09T02:45:08;20.10;69.10
68354;DHT22;55274;43.060;25.618;2022-09-09T02:50:29;19.80;71.40
68354;DHT22;55274;43.060;25.618;2022-09-09T02:53:24;19.50;71.60
68354;DHT22;55274;43.060;25.618;2022-09-09T02:56:02;19.40;72.20
68354;DHT22;55274;43.060;25.618;2022-09-09T02:58:30;19.30;72.30
68354;DHT22;55274;43.060;25.618;2022-09-09T03:00:56;19.30;72.80
68354;DHT22;55274;43.060;25.618;2022-09-09T03:03:23;19.20;72.60
68354;DHT22;55274;43.060;25.618;2022-09-09T03:05:49;19.20;73.40
68354;DHT22;55274;43.060;25.618;2022-09-09T03:08:15;19.20;73.60
68354;DHT22;55274;43.060;25.618;2022-09-09T03:10:41;19.20;73.30
68354;DHT22;55274;43.060;25.618;2022-09-09T03:13:08;19.10;73.70
68354;DHT22;55274;43.060;25.618;2022-09-09T03:15:34;19.10;73.90
68354;DHT22;55274;43.060;25.618;2022-09-09T03:18:00;19.00;74.10
68354;DHT22;55274;43.060;25.618;2022-09-09T03:20:28;18.90;74.50
68354;DHT22;55274;43.060;25.618;2022-09-09T03:22:55;18.90;74.80
68354;DHT22;55274;43.060;25.618;2022-09-09T03:25:21;18.80;74.90
68354;DHT22;55274;43.060;25.618;2022-09-09T03:27:49;18.80;75.10
68354;DHT22;55274;43.060;25.618;2022-09-09T03:30:15;18.80;75.20
68354;DHT22;55274;43.060;25.618;2022-09-09T03:32:41;18.80;75.10
68354;DHT22;55274;43.060;25.618;2022-09-09T03:35:08;18.70;74.90
68354;DHT22;55274;43.060;25.618;2022-09-09T03:37:33;18.80;75.40
68354;DHT22;55274;43.060;25.618;2022-09-09T03:39:59;18.70;75.20
68354;DHT22;55274;43.060;25.618;2022-09-09T03:42:25;18.60;75.80
68354;DHT22;55274;43.060;25.618;2022-09-09T03:44:51;18.60;76.00
68354;DHT22;55274;43.060;25.618;2022-09-09T03:47:18;18.60;76.10
68354;DHT22;55274;43.060;25.618;2022-09-09T03:49:44;18.60;76.30
68354;DHT22;55274;43.060;25.618;2022-09-09T03:52:10;18.50;76.50
68354;DHT22;55274;43.060;25.618;2022-09-09T03:54:36;18.50;76.30
68354;DHT22;55274;43.060;25.618;2022-09-09T03:57:02;18.50;76.60
68354;DHT22;55274;43.060;25.618;2022-09-09T03:59:28;18.50;77.50
68354;DHT22;55274;43.060;25.618;2022-09-09T04:01:54;18.40;77.70
68354;DHT22;55274;43.060;25.618;2022-09-09T04:04:20;18.30;77.50
68354;DHT22;55274;43.060;25.618;2022-09-09T04:06:46;18.30;77.70
68354;DHT22;55274;43.060;25.618;2022-09-09T04:09:14;18.30;77.70
68354;DHT22;55274;43.060;25.618;2022-09-09T04:11:40;18.30;77.80
68354;DHT22;55274;43.060;25.618;2022-09-09T04:14:07;18.20;78.10
68354;DHT22;55274;43.060;25.618;2022-09-09T04:16:33;18.20;78.20
68354;DHT22;55274;43.060;25.618;2022-09-09T04:18:59;18.20;78.40
68354;DHT22;55274;43.060;25.618;2022-09-09T04:21:26;18.20;78.10
68354;DHT22;55274;43.060;25.618;2022-09-09T04:23:52;18.20;78.50
68354;DHT22;55274;43.060;25.618;2022-09-09T04:26:18;18.20;78.40
68354;DHT22;55274;43.060;25.618;2022-09-09T04:28:45;18.20;78.40
68354;DHT22;55274;43.060;25.618;2022-09-09T04:31:19;18.30;79.00
68354;DHT22;55274;43.060;25.618;2022-09-09T04:33:46;18.20;78.30
68354;DHT22;55274;43.060;25.618;2022-09-09T04:36:12;18.30;78.40
68354;DHT22;55274;43.060;25.618;2022-09-09T04:38:38;18.40;78.50
68354;DHT22;55274;43.060;25.618;2022-09-09T04:41:04;18.50;78.20
68354;DHT22;55274;43.060;25.618;2022-09-09T04:43:30;18.60;77.50
68354;DHT22;55274;43.060;25.618;2022-09-09T04:45:56;18.70;77.10
68354;DHT22;55274;43.060;25.618;2022-09-09T04:48:22;18.70;77.20
68354;DHT22;55274;43.060;25.618;2022-09-09T04:50:56;18.70;77.60
68354;DHT22;55274;43.060;25.618;2022-09-09T04:53:22;18.80;78.10
68354;DHT22;55274;43.060;25.618;2022-09-09T04:55:48;18.80;78.20
68354;DHT22;55274;43.060;25.618;2022-09-09T04:58:14;18.90;77.70
68354;DHT22;55274;43.060;25.618;2022-09-09T05:00:41;18.90;77.70
68354;DHT22;55274;43.060;25.618;2022-09-09T05:03:08;19.00;77.30
68354;DHT22;55274;43.060;25.618;2022-09-09T05:05:35;19.60;75.80
68354;DHT22;55274;43.060;25.618;2022-09-09T05:08:05;20.30;73.90
68354;DHT22;55274;43.060;25.618;2022-09-09T05:10:33;21.00;71.90
68354;DHT22;55274;43.060;25.618;2022-09-09T05:12:59;21.80;70.20
68354;DHT22;55274;43.060;25.618;2022-09-09T05:15:25;22.50;67.10
68354;DHT22;55274;43.060;25.618;2022-09-09T05:17:51;23.20;62.90
68354;DHT22;55274;43.060;25.618;2022-09-09T05:20:18;23.60;62.30
68354;DHT22;55274;43.060;25.618;2022-09-09T05:22:44;24.10;59.20
68354;DHT22;55274;43.060;25.618;2022-09-09T05:25:10;24.70;59.90
68354;DHT22;55274;43.060;25.618;2022-09-09T05:27:35;25.50;57.10
68354;DHT22;55274;43.060;25.618;2022-09-09T05:30:01;26.20;55.10
68354;DHT22;55274;43.060;25.618;2022-09-09T05:32:29;26.80;53.30
68354;DHT22;55274;43.060;25.618;2022-09-09T05:34:57;27.30;50.30
68354;DHT22;55274;43.060;25.618;2022-09-09T05:37:25;27.50;50.60
68354;DHT22;55274;43.060;25.618;2022-09-09T05:39:51;27.50;49.90
68354;DHT22;55274;43.060;25.618;2022-09-09T05:42:17;28.00;49.30
68354;DHT22;55274;43.060;25.618;2022-09-09T05:44:42;28.30;47.40
68354;DHT22;55274;43.060;25.618;2022-09-09T05:47:10;28.20;47.00
68354;DHT22;55274;43.060;25.618;2022-09-09T05:49:35;28.50;47.80
68354;DHT22;55274;43.060;25.618;2022-09-09T05:52:02;28.70;46.60
68354;DHT22;55274;43.060;25.618;2022-09-09T05:54:29;29.20;47.20
68354;DHT22;55274;43.060;25.618;2022-09-09T05:56:55;29.40;46.10
68354;DHT22;55274;43.060;25.618;2022-09-09T05:59:21;29.60;45.90
68354;DHT22;55274;43.060;25.618;2022-09-09T06:01:49;30.20;45.00
68354;DHT22;55274;43.060;25.618;2022-09-09T06:04:15;30.50;43.10
68354;DHT22;55274;43.060;25.618;2022-09-09T06:06:41;30.40;42.10
68354;DHT22;55274;43.060;25.618;2022-09-09T06:09:08;30.40;43.90
68354;DHT22;55274;43.060;25.618;2022-09-09T06:11:37;30.40;42.70
68354;DHT22;55274;43.060;25.618;2022-09-09T06:14:05;30.60;41.20
68354;DHT22;55274;43.060;25.618;2022-09-09T06:16:31;30.70;40.00
68354;DHT22;55274;43.060;25.618;2022-09-09T06:19:01;31.00;40.40
68354;DHT22;55274;43.060;25.618;2022-09-09T06:21:34;31.10;39.00
68354;DHT22;55274;43.060;25.618;2022-09-09T06:24:02;31.30;41.20
68354;DHT22;55274;43.060;25.618;2022-09-09T06:26:34;31.50;39.90
68354;DHT22;55274;43.060;25.618;2022-09-09T06:29:02;31.70;40.20
68354;DHT22;55274;43.060;25.618;2022-09-09T06:31:30;31.40;39.20
68354;DHT22;55274;43.060;25.618;2022-09-09T06:33:57;31.30;39.20
68354;DHT22;55274;43.060;25.618;2022-09-09T06:36:37;31.30;38.60
68354;DHT22;55274;43.060;25.618;2022-09-09T06:39:04;31.40;39.10
68354;DHT22;55274;43.060;25.618;2022-09-09T06:41:31;31.70;37.30
68354;DHT22;55274;43.060;25.618;2022-09-09T06:43:58;31.70;36.40
68354;DHT22;55274;43.060;25.618;2022-09-09T06:46:26;32.00;38.70
68354;DHT22;55274;43.060;25.618;2022-09-09T06:48:57;31.80;35.60
68354;DHT22;55274;43.060;25.618;2022-09-09T06:51:30;31.90;37.20
68354;DHT22;55274;43.060;25.618;2022-09-09T06:53:57;31.90;35.80
68354;DHT22;55274;43.060;25.618;2022-09-09T06:56:31;31.90;36.40
68354;DHT22;55274;43.060;25.618;2022-09-09T06:58:59;31.90;37.50
68354;DHT22;55274;43.060;25.618;2022-09-09T07:01:47;32.00;35.50
68354;DHT22;55274;43.060;25.618;2022-09-09T07:04:13;31.60;36.30
68354;DHT22;55274;43.060;25.618;2022-09-09T07:06:44;31.70;35.20
68354;DHT22;55274;43.060;25.618;2022-09-09T07:09:12;31.70;35.80
68354;DHT22;55274;43.060;25.618;2022-09-09T07:11:40;31.90;35.60
68354;DHT22;55274;43.060;25.618;2022-09-09T07:14:10;32.00;35.70
68354;DHT22;55274;43.060;25.618;2022-09-09T07:16:40;31.60;35.00
68354;DHT22;55274;43.060;25.618;2022-09-09T07:19:07;31.20;37.30
68354;DHT22;55274;43.060;25.618;2022-09-09T07:21:33;31.10;36.60
68354;DHT22;55274;43.060;25.618;2022-09-09T07:23:59;31.30;35.90
68354;DHT22;55274;43.060;25.618;2022-09-09T07:26:28;31.50;35.90
68354;DHT22;55274;43.060;25.618;2022-09-09T07:28:54;31.80;35.50
68354;DHT22;55274;43.060;25.618;2022-09-09T07:31:27;32.00;35.20
68354;DHT22;55274;43.060;25.618;2022-09-09T07:33:53;32.10;35.60
68354;DHT22;55274;43.060;25.618;2022-09-09T07:38:50;32.30;35.10
68354;DHT22;55274;43.060;25.618;2022-09-09T07:41:22;32.30;35.00
68354;DHT22;55274;43.060;25.618;2022-09-09T07:43:50;32.40;35.10
68354;DHT22;55274;43.060;25.618;2022-09-09T07:46:18;32.60;34.90
68354;DHT22;55274;43.060;25.618;2022-09-09T07:48:49;33.00;34.70
68354;DHT22;55274;43.060;25.618;2022-09-09T07:51:27;33.10;33.70
68354;DHT22;55274;43.060;25.618;2022-09-09T07:53:55;33.10;32.80
68354;DHT22;55274;43.060;25.618;2022-09-09T07:56:25;33.00;33.40
68354;DHT22;55274;43.060;25.618;2022-09-09T07:58:53;33.10;32.30
68354;DHT22;55274;43.060;25.618;2022-09-09T08:01:23;33.10;32.10
68354;DHT22;55274;43.060;25.618;2022-09-09T08:04:00;33.10;32.30
68354;DHT22;55274;43.060;25.618;2022-09-09T08:06:29;33.40;32.00
68354;DHT22;55274;43.060;25.618;2022-09-09T08:08:55;33.60;31.50
68354;DHT22;55274;43.060;25.618;2022-09-09T08:11:23;33.70;31.10
68354;DHT22;55274;43.060;25.618;2022-09-09T08:13:51;33.90;31.10
68354;DHT22;55274;43.060;25.618;2022-09-09T08:16:22;34.10;31.00
68354;DHT22;55274;43.060;25.618;2022-09-09T08:18:50;34.20;30.80
68354;DHT22;55274;43.060;25.618;2022-09-09T08:21:28;34.10;31.00
68354;DHT22;55274;43.060;25.618;2022-09-09T08:23:55;33.90;29.60
68354;DHT22;55274;43.060;25.618;2022-09-09T08:26:26;34.00;30.90
68354;DHT22;55274;43.060;25.618;2022-09-09T08:28:56;34.30;30.50
68354;DHT22;55274;43.060;25.618;2022-09-09T08:33:55;34.30;30.60
68354;DHT22;55274;43.060;25.618;2022-09-09T08:36:23;34.40;31.00
68354;DHT22;55274;43.060;25.618;2022-09-09T08:38:51;34.50;30.10
68354;DHT22;55274;43.060;25.618;2022-09-09T08:43:47;34.60;29.70
68354;DHT22;55274;43.060;25.618;2022-09-09T08:46:31;34.60;30.10
68354;DHT22;55274;43.060;25.618;2022-09-09T08:51:42;34.30;30.50
68354;DHT22;55274;43.060;25.618;2022-09-09T08:54:09;34.30;30.40
68354;DHT22;55274;43.060;25.618;2022-09-09T08:56:36;34.10;30.30
68354;DHT22;55274;43.060;25.618;2022-09-09T08:59:02;33.70;31.10
68354;DHT22;55274;43.060;25.618;2022-09-09T09:04:56;33.50;31.40
68354;DHT22;55274;43.060;25.618;2022-09-09T09:07:46;33.70;30.90
68354;DHT22;55274;43.060;25.618;2022-09-09T09:12:58;33.50;32.20
68354;DHT22;55274;43.060;25.618;2022-09-09T09:15:34;33.10;32.20
68354;DHT22;55274;43.060;25.618;2022-09-09T09:18:03;33.30;32.10
68354;DHT22;55274;43.060;25.618;2022-09-09T09:23:16;33.90;30.90
68354;DHT22;55274;43.060;25.618;2022-09-09T09:25:45;33.90;30.70
68354;DHT22;55274;43.060;25.618;2022-09-09T09:28:23;34.00;31.20
68354;DHT22;55274;43.060;25.618;2022-09-09T09:33:26;34.20;30.80
68354;DHT22;55274;43.060;25.618;2022-09-09T09:35:54;33.90;30.90
68354;DHT22;55274;43.060;25.618;2022-09-09T09:38:25;34.50;31.00
68354;DHT22;55274;43.060;25.618;2022-09-09T09:40:54;34.70;30.20
68354;DHT22;55274;43.060;25.618;2022-09-09T09:43:35;35.00;30.60
68354;DHT22;55274;43.060;25.618;2022-09-09T09:46:03;35.00;30.60
68354;DHT22;55274;43.060;25.618;2022-09-09T09:48:30;35.10;29.80
68354;DHT22;55274;43.060;25.618;2022-09-09T09:51:02;35.30;30.80
68354;DHT22;55274;43.060;25.618;2022-09-09T09:53:30;35.70;29.10
68354;DHT22;55274;43.060;25.618;2022-09-09T09:56:15;35.10;30.30
68354;DHT22;55274;43.060;25.618;2022-09-09T10:01:24;34.70;30.50
68354;DHT22;55274;43.060;25.618;2022-09-09T10:03:52;34.80;30.60
68354;DHT22;55274;43.060;25.618;2022-09-09T10:06:36;34.80;30.00
68354;DHT22;55274;43.060;25.618;2022-09-09T10:09:20;34.50;30.60
68354;DHT22;55274;43.060;25.618;2022-09-09T10:11:57;34.50;30.80
68354;DHT22;55274;43.060;25.618;2022-09-09T10:19:46;34.70;30.70
68354;DHT22;55274;43.060;25.618;2022-09-09T10:27:54;34.60;31.50
68354;DHT22;55274;43.060;25.618;2022-09-09T10:36:13;34.90;30.40
68354;DHT22;55274;43.060;25.618;2022-09-09T10:38:45;34.90;31.10
68354;DHT22;55274;43.060;25.618;2022-09-09T10:50:24;34.90;30.60
68354;DHT22;55274;43.060;25.618;2022-09-09T10:54:02;35.00;31.50
68354;DHT22;55274;43.060;25.618;2022-09-09T10:56:11;35.10;31.20
68354;DHT22;55274;43.060;25.618;2022-09-09T11:01:24;35.50;29.50
68354;DHT22;55274;43.060;25.618;2022-09-09T11:06:46;35.50;29.80
68354;DHT22;55274;43.060;25.618;2022-09-09T11:09:19;35.30;29.90
68354;DHT22;55274;43.060;25.618;2022-09-09T11:11:54;35.50;29.70
